sensor_id;sensor_type;location;lat;lon;timestamp;temperature;humidity
17405;DHT22;8820;54.604;18.226;2022-11-13T00:00:30;14.00;99.90
17405;DHT22;8820;54.604;18.226;2022-11-13T00:03:19;14.00;99.90
17405;DHT22;8820;54.604;18.226;2022-11-13T00:06:06;14.10;99.90
17405;DHT22;8820;54.604;18.226;2022-11-13T00:08:53;14.20;99.90
17405;DHT22;8820;54.604;18.226;2022-11-13T00:11:41;14.20;99.90
17405;DHT22;8820;54.604;18.226;2022-11-13T00:14:28;14.20;99.90
17405;DHT22;8820;54.604;18.226;2022-11-13T00:17:15;14.20;99.90
17405;DHT22;8820;54.604;18.226;2022-11-13T00:20:04;14.20;99.90
17405;DHT22;8820;54.604;18.226;2022-11-13T00:22:51;14.10;99.90
17405;DHT22;8820;54.604;18.226;2022-11-13T00:25:38;14.10;99.90
17405;DHT22;8820;54.604;18.226;2022-11-13T00:28:25;14.20;99.90
17405;DHT22;8820;54.604;18.226;2022-11-13T00:31:14;14.10;99.90
17405;DHT22;8820;54.604;18.226;2022-11-13T00:34:01;14.10;99.90
17405;DHT22;8820;54.604;18.226;2022-11-13T00:37:09;14.10;99.90
17405;DHT22;8820;54.604;18.226;2022-11-13T00:39:56;14.20;99.90
17405;DHT22;8820;54.604;18.226;2022-11-13T00:42:44;14.20;99.90
17405;DHT22;8820;54.604;18.226;2022-11-13T00:45:31;14.20;99.90
17405;DHT22;8820;54.604;18.226;2022-11-13T00:48:18;14.20;99.90
17405;DHT22;8820;54.604;18.226;2022-11-13T00:51:05;14.20;99.90
17405;DHT22;8820;54.604;18.226;2022-11-13T00:53:54;14.20;99.90
17405;DHT22;8820;54.604;18.226;2022-11-13T00:56:40;14.20;99.90
17405;DHT22;8820;54.604;18.226;2022-11-13T00:59:27;14.10;99.90
17405;DHT22;8820;54.604;18.226;2022-11-13T01:02:14;14.20;99.90
17405;DHT22;8820;54.604;18.226;2022-11-13T01:05:01;14.10;99.90
17405;DHT22;8820;54.604;18.226;2022-11-13T01:07:49;14.10;99.90
17405;DHT22;8820;54.604;18.226;2022-11-13T01:10:40;14.20;99.90
17405;DHT22;8820;54.604;18.226;2022-11-13T01:13:30;14.20;99.90
17405;DHT22;8820;54.604;18.226;2022-11-13T01:16:20;14.20;99.90
17405;DHT22;8820;54.604;18.226;2022-11-13T01:19:07;14.20;99.90
17405;DHT22;8820;54.604;18.226;2022-11-13T01:21:54;14.20;99.90
17405;DHT22;8820;54.604;18.226;2022-11-13T01:24:40;14.10;99.90
17405;DHT22;8820;54.604;18.226;2022-11-13T01:27:29;14.10;99.90
17405;DHT22;8820;54.604;18.226;2022-11-13T01:30:16;14.10;99.90
17405;DHT22;8820;54.604;18.226;2022-11-13T01:33:04;14.00;99.90
17405;DHT22;8820;54.604;18.226;2022-11-13T01:35:51;14.10;99.90
17405;DHT22;8820;54.604;18.226;2022-11-13T01:38:38;14.10;99.90
17405;DHT22;8820;54.604;18.226;2022-11-13T01:41:27;14.10;99.90
17405;DHT22;8820;54.604;18.226;2022-11-13T01:44:17;14.20;99.90
17405;DHT22;8820;54.604;18.226;2022-11-13T01:47:05;14.20;99.90
17405;DHT22;8820;54.604;18.226;2022-11-13T01:49:54;14.20;99.90
17405;DHT22;8820;54.604;18.226;2022-11-13T01:52:41;14.20;99.90
17405;DHT22;8820;54.604;18.226;2022-11-13T01:55:29;14.20;99.90
17405;DHT22;8820;54.604;18.226;2022-11-13T01:58:16;14.20;99.90
17405;DHT22;8820;54.604;18.226;2022-11-13T02:01:04;14.20;99.90
17405;DHT22;8820;54.604;18.226;2022-11-13T02:03:52;14.10;99.90
17405;DHT22;8820;54.604;18.226;2022-11-13T02:06:41;14.20;99.90
17405;DHT22;8820;54.604;18.226;2022-11-13T02:09:33;14.20;99.90
17405;DHT22;8820;54.604;18.226;2022-11-13T02:12:26;14.20;99.90
17405;DHT22;8820;54.604;18.226;2022-11-13T02:15:14;14.20;99.90
17405;DHT22;8820;54.604;18.226;2022-11-13T02:18:04;14.20;99.90
17405;DHT22;8820;54.604;18.226;2022-11-13T02:20:58;14.10;99.90
17405;DHT22;8820;54.604;18.226;2022-11-13T02:23:51;14.10;99.90
17405;DHT22;8820;54.604;18.226;2022-11-13T02:26:41;14.20;99.90
17405;DHT22;8820;54.604;18.226;2022-11-13T02:29:29;14.20;99.90
17405;DHT22;8820;54.604;18.226;2022-11-13T02:32:16;14.10;99.90
17405;DHT22;8820;54.604;18.226;2022-11-13T02:35:03;14.10;99.90
17405;DHT22;8820;54.604;18.226;2022-11-13T02:37:50;14.10;99.90
17405;DHT22;8820;54.604;18.226;2022-11-13T02:40:37;14.20;99.90
17405;DHT22;8820;54.604;18.226;2022-11-13T02:43:25;14.10;99.90
17405;DHT22;8820;54.604;18.226;2022-11-13T02:46:13;14.10;99.90
17405;DHT22;8820;54.604;18.226;2022-11-13T02:48:59;14.10;99.90
17405;DHT22;8820;54.604;18.226;2022-11-13T02:51:46;14.10;99.90
17405;DHT22;8820;54.604;18.226;2022-11-13T02:54:33;14.10;99.90
17405;DHT22;8820;54.604;18.226;2022-11-13T02:57:20;14.10;99.90
17405;DHT22;8820;54.604;18.226;2022-11-13T03:00:10;14.10;99.90
17405;DHT22;8820;54.604;18.226;2022-11-13T03:02:59;14.10;99.90
17405;DHT22;8820;54.604;18.226;2022-11-13T03:05:47;14.10;99.90
17405;DHT22;8820;54.604;18.226;2022-11-13T03:08:35;14.10;99.90
17405;DHT22;8820;54.604;18.226;2022-11-13T03:11:22;14.10;99.90
17405;DHT22;8820;54.604;18.226;2022-11-13T03:14:09;14.10;99.90
17405;DHT22;8820;54.604;18.226;2022-11-13T03:16:57;14.10;99.90
17405;DHT22;8820;54.604;18.226;2022-11-13T03:19:45;14.10;99.90
17405;DHT22;8820;54.604;18.226;2022-11-13T03:22:32;14.10;99.90
17405;DHT22;8820;54.604;18.226;2022-11-13T03:25:18;14.10;99.90
17405;DHT22;8820;54.604;18.226;2022-11-13T03:28:05;14.10;99.90
17405;DHT22;8820;54.604;18.226;2022-11-13T03:30:52;14.10;99.90
17405;DHT22;8820;54.604;18.226;2022-11-13T03:33:41;14.10;99.90
17405;DHT22;8820;54.604;18.226;2022-11-13T03:36:28;14.10;99.90
17405;DHT22;8820;54.604;18.226;2022-11-13T03:39:15;14.10;99.90
17405;DHT22;8820;54.604;18.226;2022-11-13T03:42:02;14.00;99.90
17405;DHT22;8820;54.604;18.226;2022-11-13T03:44:49;14.10;99.90
17405;DHT22;8820;54.604;18.226;2022-11-13T03:47:36;14.10;99.90
17405;DHT22;8820;54.604;18.226;2022-11-13T03:50:25;14.00;99.90
17405;DHT22;8820;54.604;18.226;2022-11-13T03:53:12;14.10;99.90
17405;DHT22;8820;54.604;18.226;2022-11-13T03:55:59;14.00;99.90
17405;DHT22;8820;54.604;18.226;2022-11-13T03:58:46;14.10;99.90
17405;DHT22;8820;54.604;18.226;2022-11-13T04:01:34;14.10;99.90
17405;DHT22;8820;54.604;18.226;2022-11-13T04:04:21;14.00;99.90
17405;DHT22;8820;54.604;18.226;2022-11-13T04:07:09;14.10;99.90
17405;DHT22;8820;54.604;18.226;2022-11-13T04:09:56;14.00;99.90
17405;DHT22;8820;54.604;18.226;2022-11-13T04:12:43;14.10;99.90
17405;DHT22;8820;54.604;18.226;2022-11-13T04:15:31;14.00;99.90
17405;DHT22;8820;54.604;18.226;2022-11-13T04:18:18;14.00;99.90
17405;DHT22;8820;54.604;18.226;2022-11-13T04:21:04;14.00;99.90
17405;DHT22;8820;54.604;18.226;2022-11-13T04:23:53;14.00;99.90
17405;DHT22;8820;54.604;18.226;2022-11-13T04:26:40;14.00;99.90
17405;DHT22;8820;54.604;18.226;2022-11-13T04:29:27;14.00;99.90
17405;DHT22;8820;54.604;18.226;2022-11-13T04:32:14;14.00;99.90
17405;DHT22;8820;54.604;18.226;2022-11-13T04:35:02;14.00;99.90
17405;DHT22;8820;54.604;18.226;2022-11-13T04:37:49;14.00;99.90
17405;DHT22;8820;54.604;18.226;2022-11-13T04:40:37;14.00;99.90
17405;DHT22;8820;54.604;18.226;2022-11-13T04:43:24;14.00;99.90
17405;DHT22;8820;54.604;18.226;2022-11-13T04:46:10;14.00;99.90
17405;DHT22;8820;54.604;18.226;2022-11-13T04:48:57;13.90;99.90
17405;DHT22;8820;54.604;18.226;2022-11-13T04:51:44;13.90;99.90
17405;DHT22;8820;54.604;18.226;2022-11-13T04:54:31;13.90;99.90
17405;DHT22;8820;54.604;18.226;2022-11-13T04:57:19;14.00;99.90
17405;DHT22;8820;54.604;18.226;2022-11-13T05:00:08;14.00;99.90
17405;DHT22;8820;54.604;18.226;2022-11-13T05:02:55;14.00;99.90
17405;DHT22;8820;54.604;18.226;2022-11-13T05:05:42;14.00;99.90
17405;DHT22;8820;54.604;18.226;2022-11-13T05:08:30;14.00;99.90
17405;DHT22;8820;54.604;18.226;2022-11-13T05:11:17;14.00;99.90
17405;DHT22;8820;54.604;18.226;2022-11-13T05:14:05;14.00;99.90
17405;DHT22;8820;54.604;18.226;2022-11-13T05:16:52;14.00;99.90
17405;DHT22;8820;54.604;18.226;2022-11-13T05:19:39;14.00;99.90
17405;DHT22;8820;54.604;18.226;2022-11-13T05:22:26;14.00;99.90
17405;DHT22;8820;54.604;18.226;2022-11-13T05:25:13;13.90;99.90
17405;DHT22;8820;54.604;18.226;2022-11-13T05:27:59;13.90;99.90
17405;DHT22;8820;54.604;18.226;2022-11-13T05:30:48;14.00;99.90
17405;DHT22;8820;54.604;18.226;2022-11-13T05:33:35;14.00;99.90
17405;DHT22;8820;54.604;18.226;2022-11-13T05:36:22;14.00;99.90
17405;DHT22;8820;54.604;18.226;2022-11-13T05:39:09;14.00;99.90
17405;DHT22;8820;54.604;18.226;2022-11-13T05:41:57;14.00;99.90
17405;DHT22;8820;54.604;18.226;2022-11-13T05:44:43;14.00;99.90
17405;DHT22;8820;54.604;18.226;2022-11-13T05:47:33;14.00;99.90
17405;DHT22;8820;54.604;18.226;2022-11-13T05:50:20;14.00;99.90
17405;DHT22;8820;54.604;18.226;2022-11-13T05:53:07;14.00;99.90
17405;DHT22;8820;54.604;18.226;2022-11-13T05:55:53;14.00;99.90
17405;DHT22;8820;54.604;18.226;2022-11-13T05:58:41;14.00;99.90
17405;DHT22;8820;54.604;18.226;2022-11-13T06:01:30;14.00;99.90
17405;DHT22;8820;54.604;18.226;2022-11-13T06:04:18;14.00;99.90
17405;DHT22;8820;54.604;18.226;2022-11-13T06:07:05;14.00;99.90
17405;DHT22;8820;54.604;18.226;2022-11-13T06:09:52;14.00;99.90
17405;DHT22;8820;54.604;18.226;2022-11-13T06:12:39;13.90;99.90
17405;DHT22;8820;54.604;18.226;2022-11-13T06:15:26;13.90;99.90
17405;DHT22;8820;54.604;18.226;2022-11-13T06:18:13;13.90;99.90
17405;DHT22;8820;54.604;18.226;2022-11-13T06:21:03;14.00;99.90
17405;DHT22;8820;54.604;18.226;2022-11-13T06:23:50;14.00;99.90
17405;DHT22;8820;54.604;18.226;2022-11-13T06:26:37;14.00;99.90
17405;DHT22;8820;54.604;18.226;2022-11-13T06:29:24;14.00;99.90
17405;DHT22;8820;54.604;18.226;2022-11-13T06:32:11;14.00;99.90
17405;DHT22;8820;54.604;18.226;2022-11-13T06:34:58;13.90;99.90
17405;DHT22;8820;54.604;18.226;2022-11-13T06:37:46;14.00;99.90
17405;DHT22;8820;54.604;18.226;2022-11-13T06:40:33;13.90;99.90
17405;DHT22;8820;54.604;18.226;2022-11-13T06:43:20;14.00;99.90
17405;DHT22;8820;54.604;18.226;2022-11-13T06:46:10;14.00;99.90
17405;DHT22;8820;54.604;18.226;2022-11-13T06:48:58;13.90;99.90
17405;DHT22;8820;54.604;18.226;2022-11-13T06:51:45;13.90;99.90
17405;DHT22;8820;54.604;18.226;2022-11-13T06:54:33;13.90;99.90
17405;DHT22;8820;54.604;18.226;2022-11-13T06:57:20;14.00;99.90
17405;DHT22;8820;54.604;18.226;2022-11-13T07:00:08;13.90;99.90
17405;DHT22;8820;54.604;18.226;2022-11-13T07:02:56;14.00;99.90
17405;DHT22;8820;54.604;18.226;2022-11-13T07:05:43;14.00;99.90
17405;DHT22;8820;54.604;18.226;2022-11-13T07:08:31;14.00;99.90
17405;DHT22;8820;54.604;18.226;2022-11-13T07:11:20;14.00;99.90
17405;DHT22;8820;54.604;18.226;2022-11-13T07:14:09;13.90;99.90
17405;DHT22;8820;54.604;18.226;2022-11-13T07:16:57;13.90;99.90
17405;DHT22;8820;54.604;18.226;2022-11-13T07:19:55;13.80;99.90
17405;DHT22;8820;54.604;18.226;2022-11-13T07:22:42;13.90;99.90
17405;DHT22;8820;54.604;18.226;2022-11-13T07:25:30;13.90;99.90
17405;DHT22;8820;54.604;18.226;2022-11-13T07:28:18;13.90;99.90
17405;DHT22;8820;54.604;18.226;2022-11-13T07:31:05;13.90;99.90
17405;DHT22;8820;54.604;18.226;2022-11-13T07:33:52;14.00;99.90
17405;DHT22;8820;54.604;18.226;2022-11-13T07:36:39;14.00;99.90
17405;DHT22;8820;54.604;18.226;2022-11-13T07:39:26;14.10;99.90
17405;DHT22;8820;54.604;18.226;2022-11-13T07:42:13;14.10;99.90
17405;DHT22;8820;54.604;18.226;2022-11-13T07:45:02;14.20;99.90
17405;DHT22;8820;54.604;18.226;2022-11-13T07:47:49;14.20;99.90
17405;DHT22;8820;54.604;18.226;2022-11-13T07:50:37;14.20;99.90
17405;DHT22;8820;54.604;18.226;2022-11-13T07:53:24;14.20;99.90
17405;DHT22;8820;54.604;18.226;2022-11-13T07:56:11;14.20;99.90
17405;DHT22;8820;54.604;18.226;2022-11-13T07:59:02;14.20;99.90
17405;DHT22;8820;54.604;18.226;2022-11-13T08:01:51;14.30;99.90
17405;DHT22;8820;54.604;18.226;2022-11-13T08:04:37;14.20;99.90
17405;DHT22;8820;54.604;18.226;2022-11-13T08:07:24;14.30;99.90
17405;DHT22;8820;54.604;18.226;2022-11-13T08:10:12;14.40;99.90
17405;DHT22;8820;54.604;18.226;2022-11-13T08:13:00;14.40;99.90
17405;DHT22;8820;54.604;18.226;2022-11-13T08:15:47;14.40;99.90
17405;DHT22;8820;54.604;18.226;2022-11-13T08:18:35;14.40;99.90
17405;DHT22;8820;54.604;18.226;2022-11-13T08:21:22;14.40;99.90
17405;DHT22;8820;54.604;18.226;2022-11-13T08:24:09;14.40;99.90
17405;DHT22;8820;54.604;18.226;2022-11-13T08:26:56;14.40;99.90
17405;DHT22;8820;54.604;18.226;2022-11-13T08:29:43;14.40;99.90
17405;DHT22;8820;54.604;18.226;2022-11-13T08:32:30;14.40;99.90
17405;DHT22;8820;54.604;18.226;2022-11-13T08:35:18;14.40;99.90
17405;DHT22;8820;54.604;18.226;2022-11-13T08:38:11;14.50;99.90
17405;DHT22;8820;54.604;18.226;2022-11-13T08:40:58;14.50;99.90
17405;DHT22;8820;54.604;18.226;2022-11-13T08:43:50;14.50;99.90
17405;DHT22;8820;54.604;18.226;2022-11-13T08:46:37;14.50;99.90
17405;DHT22;8820;54.604;18.226;2022-11-13T08:49:24;14.40;99.90
17405;DHT22;8820;54.604;18.226;2022-11-13T08:52:13;14.40;99.90
17405;DHT22;8820;54.604;18.226;2022-11-13T08:55:01;14.50;99.90
17405;DHT22;8820;54.604;18.226;2022-11-13T08:57:48;14.60;99.90
17405;DHT22;8820;54.604;18.226;2022-11-13T09:00:35;14.70;99.90
17405;DHT22;8820;54.604;18.226;2022-11-13T09:03:22;14.70;99.90
17405;DHT22;8820;54.604;18.226;2022-11-13T09:06:09;14.60;99.90
17405;DHT22;8820;54.604;18.226;2022-11-13T09:08:58;14.60;99.90
17405;DHT22;8820;54.604;18.226;2022-11-13T09:11:45;14.60;99.90
17405;DHT22;8820;54.604;18.226;2022-11-13T09:14:32;14.60;99.90
17405;DHT22;8820;54.604;18.226;2022-11-13T09:17:19;14.70;99.90
17405;DHT22;8820;54.604;18.226;2022-11-13T09:20:07;14.80;99.90
17405;DHT22;8820;54.604;18.226;2022-11-13T09:22:58;14.90;99.90
17405;DHT22;8820;54.604;18.226;2022-11-13T09:25:47;14.90;99.90
17405;DHT22;8820;54.604;18.226;2022-11-13T09:28:34;14.80;99.90
17405;DHT22;8820;54.604;18.226;2022-11-13T09:31:22;14.80;99.90
17405;DHT22;8820;54.604;18.226;2022-11-13T09:34:09;14.80;99.90
17405;DHT22;8820;54.604;18.226;2022-11-13T09:36:56;14.80;99.90
17405;DHT22;8820;54.604;18.226;2022-11-13T09:39:43;14.80;99.90
17405;DHT22;8820;54.604;18.226;2022-11-13T09:42:32;14.90;99.90
17405;DHT22;8820;54.604;18.226;2022-11-13T09:45:20;14.90;99.90
17405;DHT22;8820;54.604;18.226;2022-11-13T09:48:21;15.00;99.90
17405;DHT22;8820;54.604;18.226;2022-11-13T09:51:13;15.00;99.90
17405;DHT22;8820;54.604;18.226;2022-11-13T09:54:04;15.20;99.90
17405;DHT22;8820;54.604;18.226;2022-11-13T09:56:57;15.30;99.90
17405;DHT22;8820;54.604;18.226;2022-11-13T09:59:52;15.30;99.90
17405;DHT22;8820;54.604;18.226;2022-11-13T10:02:51;15.20;99.90
17405;DHT22;8820;54.604;18.226;2022-11-13T10:05:48;15.20;99.90
17405;DHT22;8820;54.604;18.226;2022-11-13T10:08:46;15.10;99.90
17405;DHT22;8820;54.604;18.226;2022-11-13T10:11:38;15.20;99.90
17405;DHT22;8820;54.604;18.226;2022-11-13T10:14:28;15.10;99.90
17405;DHT22;8820;54.604;18.226;2022-11-13T10:17:21;15.10;99.90
17405;DHT22;8820;54.604;18.226;2022-11-13T10:20:13;15.20;99.90
17405;DHT22;8820;54.604;18.226;2022-11-13T10:23:07;15.30;99.90
17405;DHT22;8820;54.604;18.226;2022-11-13T10:25:55;15.30;99.90
17405;DHT22;8820;54.604;18.226;2022-11-13T10:28:47;15.40;99.90
17405;DHT22;8820;54.604;18.226;2022-11-13T10:31:44;15.40;99.90
17405;DHT22;8820;54.604;18.226;2022-11-13T10:34:32;15.30;99.90
17405;DHT22;8820;54.604;18.226;2022-11-13T10:37:29;15.30;99.90
17405;DHT22;8820;54.604;18.226;2022-11-13T10:40:24;15.30;99.40
17405;DHT22;8820;54.604;18.226;2022-11-13T10:43:16;15.30;98.40
17405;DHT22;8820;54.604;18.226;2022-11-13T10:46:04;15.20;95.70
17405;DHT22;8820;54.604;18.226;2022-11-13T10:48:51;15.10;94.40
17405;DHT22;8820;54.604;18.226;2022-11-13T10:51:40;15.10;96.00
17405;DHT22;8820;54.604;18.226;2022-11-13T10:54:29;15.10;95.20
17405;DHT22;8820;54.604;18.226;2022-11-13T10:57:27;15.10;94.90
17405;DHT22;8820;54.604;18.226;2022-11-13T11:00:20;15.00;93.40
17405;DHT22;8820;54.604;18.226;2022-11-13T11:03:07;14.90;92.30
17405;DHT22;8820;54.604;18.226;2022-11-13T11:05:57;15.00;93.10
17405;DHT22;8820;54.604;18.226;2022-11-13T11:08:46;15.20;96.10
17405;DHT22;8820;54.604;18.226;2022-11-13T11:11:33;15.30;93.90
17405;DHT22;8820;54.604;18.226;2022-11-13T11:14:40;15.30;92.50
17405;DHT22;8820;54.604;18.226;2022-11-13T11:17:33;15.30;91.80
17405;DHT22;8820;54.604;18.226;2022-11-13T11:20:31;15.40;92.00
17405;DHT22;8820;54.604;18.226;2022-11-13T11:23:26;15.40;91.90
17405;DHT22;8820;54.604;18.226;2022-11-13T11:26:22;15.50;93.50
17405;DHT22;8820;54.604;18.226;2022-11-13T11:29:15;15.50;91.80
17405;DHT22;8820;54.604;18.226;2022-11-13T11:32:08;15.50;92.80
17405;DHT22;8820;54.604;18.226;2022-11-13T11:35:03;15.60;94.30
17405;DHT22;8820;54.604;18.226;2022-11-13T11:37:56;15.60;91.80
17405;DHT22;8820;54.604;18.226;2022-11-13T11:40:46;15.60;92.30
17405;DHT22;8820;54.604;18.226;2022-11-13T11:43:41;15.50;91.30
17405;DHT22;8820;54.604;18.226;2022-11-13T11:46:29;15.50;92.90
17405;DHT22;8820;54.604;18.226;2022-11-13T11:49:17;15.40;90.90
17405;DHT22;8820;54.604;18.226;2022-11-13T11:52:16;15.30;90.80
17405;DHT22;8820;54.604;18.226;2022-11-13T11:55:22;15.10;90.80
17405;DHT22;8820;54.604;18.226;2022-11-13T11:58:19;15.10;91.40
17405;DHT22;8820;54.604;18.226;2022-11-13T12:01:16;15.10;91.70
17405;DHT22;8820;54.604;18.226;2022-11-13T12:04:20;15.10;90.80
17405;DHT22;8820;54.604;18.226;2022-11-13T12:07:22;14.90;91.60
17405;DHT22;8820;54.604;18.226;2022-11-13T12:10:23;14.80;91.70
17405;DHT22;8820;54.604;18.226;2022-11-13T12:13:23;14.70;92.50
17405;DHT22;8820;54.604;18.226;2022-11-13T12:16:17;14.70;93.40
17405;DHT22;8820;54.604;18.226;2022-11-13T12:19:17;14.80;92.00
17405;DHT22;8820;54.604;18.226;2022-11-13T12:22:15;14.80;91.70
17405;DHT22;8820;54.604;18.226;2022-11-13T12:25:16;14.70;92.60
17405;DHT22;8820;54.604;18.226;2022-11-13T12:28:13;14.60;93.10
17405;DHT22;8820;54.604;18.226;2022-11-13T12:31:08;14.70;92.70
17405;DHT22;8820;54.604;18.226;2022-11-13T12:34:04;14.80;92.10
17405;DHT22;8820;54.604;18.226;2022-11-13T12:36:55;14.80;91.40
17405;DHT22;8820;54.604;18.226;2022-11-13T12:39:50;14.80;91.10
17405;DHT22;8820;54.604;18.226;2022-11-13T12:42:45;14.70;91.80
17405;DHT22;8820;54.604;18.226;2022-11-13T12:45:45;14.80;91.60
17405;DHT22;8820;54.604;18.226;2022-11-13T12:48:36;14.80;91.90
17405;DHT22;8820;54.604;18.226;2022-11-13T12:51:37;14.80;91.80
17405;DHT22;8820;54.604;18.226;2022-11-13T12:54:29;14.80;90.80
17405;DHT22;8820;54.604;18.226;2022-11-13T12:57:21;14.70;91.00
17405;DHT22;8820;54.604;18.226;2022-11-13T13:00:24;14.70;91.40
17405;DHT22;8820;54.604;18.226;2022-11-13T13:03:37;14.70;91.60
17405;DHT22;8820;54.604;18.226;2022-11-13T13:06:44;14.70;91.10
17405;DHT22;8820;54.604;18.226;2022-11-13T13:09:46;14.70;92.30
17405;DHT22;8820;54.604;18.226;2022-11-13T13:12:42;14.80;92.50
17405;DHT22;8820;54.604;18.226;2022-11-13T13:15:33;14.90;91.30
17405;DHT22;8820;54.604;18.226;2022-11-13T13:18:27;15.00;90.90
17405;DHT22;8820;54.604;18.226;2022-11-13T13:21:17;15.00;91.10
17405;DHT22;8820;54.604;18.226;2022-11-13T13:24:28;15.00;90.00
17405;DHT22;8820;54.604;18.226;2022-11-13T13:27:23;14.80;90.60
17405;DHT22;8820;54.604;18.226;2022-11-13T13:30:19;14.70;91.60
17405;DHT22;8820;54.604;18.226;2022-11-13T13:33:21;14.70;90.80
17405;DHT22;8820;54.604;18.226;2022-11-13T13:36:18;14.70;90.80
17405;DHT22;8820;54.604;18.226;2022-11-13T13:39:19;14.70;90.40
17405;DHT22;8820;54.604;18.226;2022-11-13T13:42:21;14.70;90.10
17405;DHT22;8820;54.604;18.226;2022-11-13T13:45:22;14.70;90.40
17405;DHT22;8820;54.604;18.226;2022-11-13T13:48:16;14.70;90.60
17405;DHT22;8820;54.604;18.226;2022-11-13T13:51:14;14.80;89.80
17405;DHT22;8820;54.604;18.226;2022-11-13T13:54:05;14.80;90.00
17405;DHT22;8820;54.604;18.226;2022-11-13T13:56:56;14.80;90.90
17405;DHT22;8820;54.604;18.226;2022-11-13T13:59:45;14.90;91.50
17405;DHT22;8820;54.604;18.226;2022-11-13T14:02:33;14.90;88.50
17405;DHT22;8820;54.604;18.226;2022-11-13T14:05:25;14.90;90.30
17405;DHT22;8820;54.604;18.226;2022-11-13T14:08:16;14.80;88.40
17405;DHT22;8820;54.604;18.226;2022-11-13T14:11:16;14.70;88.90
17405;DHT22;8820;54.604;18.226;2022-11-13T14:14:15;14.60;89.40
17405;DHT22;8820;54.604;18.226;2022-11-13T14:17:03;14.50;90.70
17405;DHT22;8820;54.604;18.226;2022-11-13T14:19:50;14.50;90.90
17405;DHT22;8820;54.604;18.226;2022-11-13T14:22:38;14.40;90.30
17405;DHT22;8820;54.604;18.226;2022-11-13T14:25:28;14.40;91.10
17405;DHT22;8820;54.604;18.226;2022-11-13T14:28:18;14.40;90.90
17405;DHT22;8820;54.604;18.226;2022-11-13T14:31:11;14.40;90.80
17405;DHT22;8820;54.604;18.226;2022-11-13T14:34:00;14.40;90.70
17405;DHT22;8820;54.604;18.226;2022-11-13T14:36:49;14.50;90.80
17405;DHT22;8820;54.604;18.226;2022-11-13T14:39:36;14.50;90.80
17405;DHT22;8820;54.604;18.226;2022-11-13T14:42:29;14.50;90.70
17405;DHT22;8820;54.604;18.226;2022-11-13T14:45:22;14.30;90.60
17405;DHT22;8820;54.604;18.226;2022-11-13T14:48:19;14.40;91.40
17405;DHT22;8820;54.604;18.226;2022-11-13T14:51:23;14.40;91.40
17405;DHT22;8820;54.604;18.226;2022-11-13T14:54:27;14.40;90.70
17405;DHT22;8820;54.604;18.226;2022-11-13T14:57:31;14.40;91.30
17405;DHT22;8820;54.604;18.226;2022-11-13T15:00:26;14.40;90.80
17405;DHT22;8820;54.604;18.226;2022-11-13T15:03:13;14.40;90.50
17405;DHT22;8820;54.604;18.226;2022-11-13T15:06:01;14.40;90.50
17405;DHT22;8820;54.604;18.226;2022-11-13T15:08:50;14.40;90.30
17405;DHT22;8820;54.604;18.226;2022-11-13T15:11:43;14.30;89.90
17405;DHT22;8820;54.604;18.226;2022-11-13T15:14:30;14.40;90.10
17405;DHT22;8820;54.604;18.226;2022-11-13T15:17:18;14.40;90.20
17405;DHT22;8820;54.604;18.226;2022-11-13T15:20:12;14.30;90.10
17405;DHT22;8820;54.604;18.226;2022-11-13T15:23:01;14.20;90.70
17405;DHT22;8820;54.604;18.226;2022-11-13T15:25:48;14.20;91.00
17405;DHT22;8820;54.604;18.226;2022-11-13T15:28:35;14.30;91.00
17405;DHT22;8820;54.604;18.226;2022-11-13T15:31:25;14.30;90.90
17405;DHT22;8820;54.604;18.226;2022-11-13T15:34:15;14.30;91.40
17405;DHT22;8820;54.604;18.226;2022-11-13T15:37:12;14.30;91.70
17405;DHT22;8820;54.604;18.226;2022-11-13T15:40:01;14.30;91.70
17405;DHT22;8820;54.604;18.226;2022-11-13T15:42:48;14.30;92.00
17405;DHT22;8820;54.604;18.226;2022-11-13T15:45:35;14.40;92.70
17405;DHT22;8820;54.604;18.226;2022-11-13T15:48:28;14.40;93.50
17405;DHT22;8820;54.604;18.226;2022-11-13T15:51:18;14.30;94.40
17405;DHT22;8820;54.604;18.226;2022-11-13T15:54:14;14.20;95.20
17405;DHT22;8820;54.604;18.226;2022-11-13T15:57:03;14.20;95.90
17405;DHT22;8820;54.604;18.226;2022-11-13T15:59:53;14.30;96.50
17405;DHT22;8820;54.604;18.226;2022-11-13T16:02:43;14.30;96.30
17405;DHT22;8820;54.604;18.226;2022-11-13T16:05:30;14.30;96.60
17405;DHT22;8820;54.604;18.226;2022-11-13T16:08:17;14.30;96.80
17405;DHT22;8820;54.604;18.226;2022-11-13T16:11:04;14.30;96.90
17405;DHT22;8820;54.604;18.226;2022-11-13T16:13:56;14.30;97.00
17405;DHT22;8820;54.604;18.226;2022-11-13T16:16:44;14.30;97.10
17405;DHT22;8820;54.604;18.226;2022-11-13T16:19:31;14.30;97.20
17405;DHT22;8820;54.604;18.226;2022-11-13T16:22:20;14.30;97.50
17405;DHT22;8820;54.604;18.226;2022-11-13T16:25:10;14.30;97.70
17405;DHT22;8820;54.604;18.226;2022-11-13T16:27:58;14.20;97.90
17405;DHT22;8820;54.604;18.226;2022-11-13T16:30:47;14.30;98.00
17405;DHT22;8820;54.604;18.226;2022-11-13T16:33:34;14.30;98.40
17405;DHT22;8820;54.604;18.226;2022-11-13T16:36:21;14.30;98.50
17405;DHT22;8820;54.604;18.226;2022-11-13T16:39:12;14.20;98.90
17405;DHT22;8820;54.604;18.226;2022-11-13T16:42:03;14.20;99.20
17405;DHT22;8820;54.604;18.226;2022-11-13T16:44:50;14.20;99.10
17405;DHT22;8820;54.604;18.226;2022-11-13T16:47:38;14.20;99.30
17405;DHT22;8820;54.604;18.226;2022-11-13T16:50:30;14.10;99.50
17405;DHT22;8820;54.604;18.226;2022-11-13T16:53:18;14.00;99.90
17405;DHT22;8820;54.604;18.226;2022-11-13T16:56:11;14.00;99.90
17405;DHT22;8820;54.604;18.226;2022-11-13T16:58:58;13.90;99.90
17405;DHT22;8820;54.604;18.226;2022-11-13T17:01:46;13.90;99.90
17405;DHT22;8820;54.604;18.226;2022-11-13T17:04:34;13.90;99.90
17405;DHT22;8820;54.604;18.226;2022-11-13T17:07:21;13.90;99.90
17405;DHT22;8820;54.604;18.226;2022-11-13T17:10:14;14.00;99.90
17405;DHT22;8820;54.604;18.226;2022-11-13T17:13:16;14.00;99.90
17405;DHT22;8820;54.604;18.226;2022-11-13T17:16:03;14.00;99.90
17405;DHT22;8820;54.604;18.226;2022-11-13T17:18:51;14.00;99.90
17405;DHT22;8820;54.604;18.226;2022-11-13T17:21:39;14.10;99.90
17405;DHT22;8820;54.604;18.226;2022-11-13T17:24:28;14.00;99.90
17405;DHT22;8820;54.604;18.226;2022-11-13T17:27:17;14.10;99.90
17405;DHT22;8820;54.604;18.226;2022-11-13T17:30:05;14.00;99.90
17405;DHT22;8820;54.604;18.226;2022-11-13T17:32:52;14.10;99.90
17405;DHT22;8820;54.604;18.226;2022-11-13T17:35:39;14.10;99.90
17405;DHT22;8820;54.604;18.226;2022-11-13T17:38:27;14.00;99.90
17405;DHT22;8820;54.604;18.226;2022-11-13T17:41:15;14.00;99.90
17405;DHT22;8820;54.604;18.226;2022-11-13T17:44:03;14.00;99.90
17405;DHT22;8820;54.604;18.226;2022-11-13T17:46:50;14.00;99.90
17405;DHT22;8820;54.604;18.226;2022-11-13T17:49:37;13.90;99.90
17405;DHT22;8820;54.604;18.226;2022-11-13T17:52:24;13.80;99.90